createdAt,value
2023-03-06T08:08:07.406Z,98934.78
2023-03-06T08:10:34.939Z,98933.75
2023-03-06T08:13:01.785Z,98929.72
2023-03-06T08:15:28.819Z,98933.50
2023-03-06T08:17:55.773Z,98925.25
2023-03-06T08:20:22.537Z,98928.13
2023-03-06T08:22:49.256Z,98920.59
2023-03-06T08:25:16.222Z,98927.50
2023-03-06T08:27:43.399Z,98931.28
2023-03-06T08:30:10.645Z,98930.34
2023-03-06T08:32:38.012Z,98926.09
2023-03-06T08:35:05.682Z,98928.56
2023-03-06T08:37:32.478Z,98929.84
2023-03-06T08:39:59.559Z,98932.66
2023-03-06T08:42:26.425Z,98931.44
2023-03-06T08:44:53.166Z,98930.09
2023-03-06T08:47:21.419Z,98944.41
2023-03-06T08:49:48.408Z,98937.53
2023-03-06T08:52:17.195Z,98938.34
2023-03-06T08:54:43.943Z,98948.66
2023-03-06T08:57:10.745Z,98943.75
2023-03-06T08:59:37.721Z,98934.25
2023-03-06T09:02:05.635Z,98934.56
2023-03-06T09:04:33.121Z,98930.75
2023-03-06T09:07:00.545Z,98927.19
2023-03-06T09:09:27.331Z,98926.06
2023-03-06T09:11:54.891Z,98920.94
2023-03-06T09:14:21.591Z,98918.78
2023-03-06T09:16:48.293Z,98918.97
2023-03-06T09:19:15.110Z,98913.25
2023-03-06T09:21:41.873Z,98908.41
2023-03-06T09:24:08.831Z,98905.72
2023-03-06T09:26:45.728Z,98905.91
2023-03-06T09:29:16.220Z,98905.25
2023-03-06T09:31:43.513Z,98908.13
2023-03-06T09:34:10.282Z,98897.63
2023-03-06T09:36:53.414Z,98890.75
2023-03-06T09:39:24.051Z,98896.81
2023-03-06T09:41:51.075Z,98893.91
2023-03-06T09:44:38.629Z,98890.44
2023-03-06T09:47:17.588Z,98897.44
2023-03-06T09:49:55.948Z,98894.63
2023-03-06T09:52:37.481Z,98888.84
2023-03-06T09:55:13.181Z,98889.38
2023-03-06T09:57:45.535Z,98887.94
2023-03-06T10:00:14.914Z,98889.16
2023-03-06T10:02:48.302Z,98894.41
2023-03-06T10:05:22.027Z,98889.16
2023-03-06T10:08:01.410Z,98886.09
2023-03-06T10:10:36.060Z,98888.72
2023-03-06T10:13:28.441Z,98885.00
2023-03-06T10:16:04.035Z,98886.31
2023-03-06T10:18:31.788Z,98891.78
2023-03-06T10:21:19.294Z,98891.78
2023-03-06T10:23:55.014Z,98889.38
2023-03-06T10:26:27.995Z,98889.59
2023-03-06T10:29:36.747Z,98877.16
2023-03-06T10:32:12.983Z,98879.66
2023-03-06T10:34:40.699Z,98876.47
2023-03-06T10:37:22.352Z,98865.34
2023-03-06T10:39:57.689Z,98873.16
2023-03-06T10:42:24.917Z,98862.88
2023-03-06T10:45:11.990Z,98856.25
2023-03-06T10:47:40.249Z,98850.69
2023-03-06T10:50:22.223Z,98846.28
2023-03-06T10:53:05.574Z,98845.09
2023-03-06T10:55:37.853Z,98844.94
2023-03-06T10:58:19.465Z,98840.88
2023-03-06T11:00:46.286Z,98830.25
2023-03-06T11:03:23.807Z,98830.66
2023-03-06T11:06:12.654Z,98823.88
2023-03-06T11:08:41.035Z,98820.38
2023-03-06T11:11:13.655Z,98804.69
2023-03-06T11:13:42.999Z,98806.81
2023-03-06T11:16:26.938Z,98807.69
2023-03-06T11:19:01.272Z,98801.94
2023-03-06T11:21:33.919Z,98791.28
2023-03-06T11:24:12.441Z,98791.53
2023-03-06T11:26:53.739Z,98788.06
2023-03-06T11:29:34.901Z,98774.31
2023-03-06T11:32:14.500Z,98770.16
2023-03-06T11:35:06.414Z,98762.50
2023-03-06T11:37:45.134Z,98752.06
2023-03-06T11:40:11.945Z,98745.75
2023-03-06T11:42:42.954Z,98744.44
2023-03-06T11:45:23.070Z,98730.03
2023-03-06T11:48:01.810Z,98731.31
2023-03-06T11:50:28.465Z,98731.00
2023-03-06T11:53:01.576Z,98731.09
2023-03-06T11:55:37.266Z,98723.81
2023-03-06T11:58:25.362Z,98713.00
2023-03-06T12:01:00.890Z,98712.13
2023-03-06T12:03:57.529Z,98706.03
2023-03-06T12:06:34.060Z,98699.81
2023-03-06T12:09:04.905Z,98695.56
2023-03-06T12:11:40.635Z,98695.25
2023-03-06T12:14:16.183Z,98695.75
2023-03-06T12:17:07.690Z,98702.72
2023-03-06T12:19:49.955Z,98691.50
2023-03-06T12:22:32.184Z,98697.38
2023-03-06T12:25:19.385Z,98693.78
2023-03-06T12:27:48.891Z,98693.97
2023-03-06T12:30:34.536Z,98680.50
2023-03-06T12:33:10.360Z,98680.38
2023-03-06T12:35:40.083Z,98673.81
2023-03-06T12:38:30.040Z,98679.41
2023-03-06T12:41:13.051Z,98676.78
2023-03-06T12:44:00.978Z,98678.53
2023-03-06T12:46:28.366Z,98678.63
2023-03-06T12:48:57.862Z,98675.94
2023-03-06T12:51:24.653Z,98670.16
2023-03-06T12:53:51.615Z,98665.16
2023-03-06T12:56:18.946Z,98669.50
2023-03-06T12:58:49.674Z,98660.69
2023-03-06T13:01:37.699Z,98652.19
2023-03-06T13:04:05.096Z,98653.03
2023-03-06T13:06:50.419Z,98651.94
2023-03-06T13:09:22.644Z,98660.03
2023-03-06T13:11:58.144Z,98655.78
2023-03-06T13:14:45.125Z,98648.69
2023-03-06T13:17:28.827Z,98654.53
2023-03-06T13:20:35.595Z,98650.44
2023-03-06T13:23:31.220Z,98648.69
2023-03-06T13:26:02.116Z,98653.63
2023-03-06T13:28:50.240Z,98647.72
2023-03-06T13:31:54.870Z,98645.88
2023-03-06T13:34:41.395Z,98639.09
2023-03-06T13:37:17.007Z,98637.25
2023-03-06T13:39:55.648Z,98638.22
2023-03-06T13:42:56.601Z,98626.84
2023-03-06T13:45:45.339Z,98628.59
2023-03-06T13:48:47.821Z,98627.31
2023-03-06T13:51:22.889Z,98614.66
2023-03-06T13:54:04.216Z,98610.75
2023-03-06T13:57:05.233Z,98620.75
2023-03-06T13:59:42.641Z,98621.88
2023-03-06T14:02:33.914Z,98616.63
2023-03-06T14:05:02.560Z,98613.34
2023-03-06T14:07:32.404Z,98613.38
2023-03-06T14:10:09.744Z,98614.78
2023-03-06T14:12:40.941Z,98612.53
2023-03-06T14:15:41.535Z,98615.56
2023-03-06T14:18:38.382Z,98617.09
2023-03-06T14:21:08.919Z,98612.06
2023-03-06T14:23:42.292Z,98609.44
2023-03-06T14:26:15.182Z,98603.78
2023-03-06T14:28:46.485Z,98599.63
2023-03-06T14:31:18.920Z,98598.75
2023-03-06T14:33:53.408Z,98588.50
2023-03-06T14:36:23.493Z,98580.22
2023-03-06T14:38:53.257Z,98581.09
2023-03-06T14:41:28.912Z,98582.59
2023-03-06T14:44:17.685Z,98585.50
2023-03-06T14:46:49.088Z,98584.00
2023-03-06T14:49:17.648Z,98581.81
2023-03-06T14:51:47.861Z,98579.50
2023-03-06T14:54:34.979Z,98573.00
2023-03-06T14:57:06.030Z,98566.91
2023-03-06T14:59:43.055Z,98573.16
2023-03-06T15:02:12.693Z,98566.19
2023-03-06T15:04:45.050Z,98578.81
2023-03-06T15:07:15.705Z,98582.81
2023-03-06T15:09:50.989Z,98581.53
2023-03-06T15:12:20.762Z,98578.16
2023-03-06T15:14:59.510Z,98576.19
2023-03-06T15:17:38.179Z,98573.31
2023-03-06T15:20:08.830Z,98574.59
2023-03-06T15:22:40.689Z,98572.88
2023-03-06T15:25:16.222Z,98565.19
2023-03-06T15:27:49.135Z,98560.53
2023-03-06T15:30:31.217Z,98559.94
2023-03-06T15:33:19.478Z,98563.66
2023-03-06T15:35:57.558Z,98557.03
2023-03-06T15:38:30.272Z,98563.66
2023-03-06T15:40:58.464Z,98555.41
2023-03-06T15:43:25.303Z,98556.72
2023-03-06T15:45:58.308Z,98557.19
2023-03-06T15:48:25.074Z,98554.56
2023-03-06T15:50:51.863Z,98553.88
2023-03-06T15:53:20.321Z,98561.69
2023-03-06T15:55:47.357Z,98564.81
2023-03-06T15:58:17.204Z,98564.63
2023-03-06T16:00:44.366Z,98563.41
2023-03-06T16:03:11.809Z,98570.78
2023-03-06T16:05:38.825Z,98575.47
2023-03-06T16:08:06.414Z,98568.75
2023-03-06T16:10:37.112Z,98575.47
2023-03-06T16:13:21.099Z,98582.84
2023-03-06T16:15:49.487Z,98580.03
2023-03-06T16:18:16.858Z,98574.81
2023-03-06T16:20:43.876Z,98576.38
2023-03-06T16:23:10.716Z,98574.69
2023-03-06T16:25:39.236Z,98574.44
2023-03-06T16:28:08.667Z,98575.22
2023-03-06T16:30:35.693Z,98580.41
2023-03-06T16:33:03.492Z,98567.84
2023-03-06T16:35:30.614Z,98569.81
2023-03-06T16:37:57.488Z,98568.59
2023-03-06T16:40:37.547Z,98566.31
2023-03-06T16:43:05.121Z,98581.31
2023-03-06T16:45:38.472Z,98575.50
2023-03-06T16:48:06.042Z,98581.06
2023-03-06T16:50:38.163Z,98580.59
2023-03-06T16:53:05.865Z,98576.81
2023-03-06T16:55:36.541Z,98574.56
2023-03-06T16:58:03.618Z,98573.03
2023-03-06T17:00:33.228Z,98581.66
2023-03-06T17:03:01.388Z,98578.75
2023-03-06T17:05:28.949Z,98582.47
2023-03-06T17:07:56.312Z,98584.63
2023-03-06T17:10:26.271Z,98583.22
2023-03-06T17:12:54.021Z,98591.19
2023-03-06T17:15:21.434Z,98581.09
2023-03-06T17:17:48.694Z,98583.72
2023-03-06T17:20:15.706Z,98579.28
2023-03-06T17:22:42.494Z,98574.53
2023-03-06T17:25:10.233Z,98578.97
2023-03-06T17:27:37.719Z,98574.88
2023-03-06T17:30:05.998Z,98577.00
2023-03-06T17:32:32.902Z,98570.72
2023-03-06T17:34:59.985Z,98570.44
2023-03-06T17:37:26.889Z,98569.38
2023-03-06T17:39:53.778Z,98567.84
2023-03-06T17:42:20.631Z,98563.88
2023-03-06T17:44:47.982Z,98565.72
2023-03-06T17:47:14.794Z,98567.56
2023-03-06T17:49:41.542Z,98568.16
2023-03-06T17:52:08.302Z,98568.16
2023-03-06T17:54:35.888Z,98578.28
2023-03-06T17:57:04.482Z,98584.13
2023-03-06T17:59:33.938Z,98587.19
2023-03-06T18:02:01.081Z,98579.84
2023-03-06T18:04:27.869Z,98579.06
2023-03-06T18:06:54.642Z,98592.09
2023-03-06T18:09:21.385Z,98588.41
2023-03-06T18:11:48.038Z,98594.09
2023-03-06T18:14:14.865Z,98586.72
2023-03-06T18:16:41.710Z,98591.94
2023-03-06T18:19:11.014Z,98592.22
2023-03-06T18:21:39.114Z,98594.34
2023-03-06T18:24:06.208Z,98588.97
2023-03-06T18:26:32.935Z,98596.00
2023-03-06T18:29:03.622Z,98594.75
2023-03-06T18:31:34.574Z,98582.31
2023-03-06T18:34:12.702Z,98580.91
2023-03-06T18:36:40.519Z,98585.06
2023-03-06T18:39:08.867Z,98580.78
2023-03-06T18:41:36.351Z,98578.50
2023-03-06T18:44:03.400Z,98575.44
2023-03-06T18:46:35.212Z,98573.03
2023-03-06T18:49:02.141Z,98567.63
2023-03-06T18:51:28.901Z,98565.78
2023-03-06T18:54:00.249Z,98562.09
2023-03-06T18:56:27.250Z,98555.50
2023-03-06T18:58:54.176Z,98558.44
2023-03-06T19:01:22.356Z,98560.28
2023-03-06T19:03:49.181Z,98566.13
2023-03-06T19:06:17.062Z,98562.28
2023-03-06T19:08:43.973Z,98577.00
2023-03-06T19:11:15.402Z,98574.59
2023-03-06T19:13:42.573Z,98577.97
2023-03-06T19:16:31.407Z,98581.50
2023-03-06T19:18:58.973Z,98581.81
2023-03-06T19:21:26.836Z,98581.22
2023-03-06T19:23:54.081Z,98583.84
2023-03-06T19:26:20.988Z,98590.25
2023-03-06T19:28:48.719Z,98580.03
2023-03-06T19:31:21.410Z,98574.66
2023-03-06T19:33:49.198Z,98565.19
2023-03-06T19:36:17.236Z,98559.22
2023-03-06T19:38:44.094Z,98553.84
2023-03-06T19:41:13.681Z,98545.88
2023-03-06T19:43:41.789Z,98556.13
2023-03-06T19:46:15.004Z,98552.47
2023-03-06T19:48:42.142Z,98556.16
2023-03-06T19:51:09.380Z,98556.94
2023-03-06T19:53:36.313Z,98558.75
2023-03-06T19:56:07.334Z,98564.28
2023-03-06T19:58:34.101Z,98555.84
2023-03-06T20:01:08.874Z,98557.38
2023-03-06T20:03:35.731Z,98546.34
2023-03-06T20:06:06.215Z,98552.31
2023-03-06T20:08:32.950Z,98547.72
2023-03-06T20:10:59.706Z,98555.81
2023-03-06T20:13:26.427Z,98562.41
2023-03-06T20:15:53.281Z,98561.47
2023-03-06T20:18:20.056Z,98556.13
2023-03-06T20:20:57.555Z,98549.38
2023-03-06T20:23:24.495Z,98549.22
2023-03-06T20:25:51.222Z,98559.91
2023-03-06T20:28:17.935Z,98560.38
2023-03-06T20:30:44.699Z,98571.06
2023-03-06T20:33:11.412Z,98572.91
2023-03-06T20:35:42.489Z,98577.94
2023-03-06T20:38:10.013Z,98582.69
2023-03-06T20:40:38.355Z,98583.91
2023-03-06T20:43:05.325Z,98575.81
2023-03-06T20:45:32.118Z,98575.81
2023-03-06T20:47:58.812Z,98568.47
2023-03-06T20:50:26.255Z,98579.34
2023-03-06T20:52:54.545Z,98560.84
2023-03-06T20:55:21.384Z,98558.09
2023-03-06T20:57:51.719Z,98556.84
2023-03-06T21:00:19.048Z,98555.78
2023-03-06T21:02:45.799Z,98558.22
2023-03-06T21:05:12.859Z,98560.50
2023-03-06T21:07:39.647Z,98560.06
2023-03-06T21:10:07.212Z,98553.91
2023-03-06T21:12:33.987Z,98560.44
2023-03-06T21:15:00.821Z,98553.84
2023-03-06T21:17:28.166Z,98547.84
2023-03-06T21:19:54.894Z,98563.28
2023-03-06T21:22:21.668Z,98563.09
2023-03-06T21:24:48.400Z,98566.28
2023-03-06T21:27:15.116Z,98576.09
2023-03-06T21:29:41.878Z,98577.25
2023-03-06T21:32:08.643Z,98570.91
2023-03-06T21:34:35.411Z,98567.41
2023-03-06T21:37:02.199Z,98572.31
2023-03-06T21:39:28.946Z,98577.41
2023-03-06T21:41:55.698Z,98583.03
2023-03-06T21:44:22.436Z,98580.94
2023-03-06T21:46:49.142Z,98572.97
2023-03-06T21:49:15.875Z,98562.59
2023-03-06T21:51:42.535Z,98562.28
2023-03-06T21:54:09.757Z,98571.47
2023-03-06T21:56:36.754Z,98562.75
2023-03-06T21:59:03.451Z,98555.06
2023-03-06T22:01:30.366Z,98554.75
2023-03-06T22:03:58.695Z,98555.81
2023-03-06T22:06:26.992Z,98559.19
2023-03-06T22:08:57.813Z,98560.22
2023-03-06T22:11:25.550Z,98559.13
2023-03-06T22:13:55.706Z,98560.34
2023-03-06T22:16:22.454Z,98563.38
2023-03-06T22:18:50.866Z,98561.41
2023-03-06T22:21:20.348Z,98558.97
2023-03-06T22:23:57.198Z,98566.47
2023-03-06T22:26:24.405Z,98555.00
2023-03-06T22:28:51.182Z,98556.56
2023-03-06T22:31:20.465Z,98558.72
2023-03-06T22:33:51.196Z,98560.09
2023-03-06T22:36:18.457Z,98558.28
2023-03-06T22:38:46.144Z,98556.75
2023-03-06T22:41:14.558Z,98548.19
2023-03-06T22:43:41.679Z,98550.63
2023-03-06T22:46:10.855Z,98551.00
2023-03-06T22:48:37.636Z,98548.75
2023-03-06T22:51:12.087Z,98548.63
2023-03-06T22:53:39.146Z,98550.75
2023-03-06T22:56:10.843Z,98549.22
2023-03-06T22:58:37.704Z,98555.16
2023-03-06T23:01:12.855Z,98559.41
2023-03-06T23:03:41.928Z,98557.91
2023-03-06T23:06:30.288Z,98555.94
2023-03-06T23:09:08.716Z,98554.88
2023-03-06T23:11:35.462Z,98557.25
2023-03-06T23:14:03.296Z,98557.97
2023-03-06T23:16:30.667Z,98565.31
2023-03-06T23:18:57.487Z,98568.63
2023-03-06T23:21:24.584Z,98570.88
2023-03-06T23:23:53.839Z,98574.53
2023-03-06T23:26:22.835Z,98568.28
2023-03-06T23:28:49.629Z,98567.81
2023-03-06T23:31:18.390Z,98563.69
2023-03-06T23:33:45.139Z,98562.03
2023-03-06T23:36:14.018Z,98557.44
2023-03-06T23:38:41.168Z,98561.69
2023-03-06T23:41:11.343Z,98561.34
2023-03-06T23:43:38.226Z,98558.84
2023-03-06T23:46:06.123Z,98556.56
2023-03-06T23:48:33.826Z,98560.81
2023-03-06T23:51:00.638Z,98562.75
2023-03-06T23:53:27.377Z,98569.16
2023-03-06T23:55:54.353Z,98565.56
2023-03-06T23:58:21.059Z,98565.19
